sensor_id;sensor_type;location;lat;lon;timestamp;pressure;altitude;pressure_sealevel;temperature;humidity
71384;BME280;61466;52.166;5.004;2022-07-03T00:01:56;101900.03;;;18.82;55.33
71384;BME280;61466;52.166;5.004;2022-07-03T00:04:22;101896.88;;;18.75;55.29
71384;BME280;61466;52.166;5.004;2022-07-03T00:06:47;101892.94;;;18.67;55.60
71384;BME280;61466;52.166;5.004;2022-07-03T00:09:14;101896.97;;;18.70;55.74
71384;BME280;61466;52.166;5.004;2022-07-03T00:11:39;101894.31;;;18.65;55.78
71384;BME280;61466;52.166;5.004;2022-07-03T00:14:05;101901.41;;;18.60;56.13
71384;BME280;61466;52.166;5.004;2022-07-03T00:16:30;101885.53;;;18.54;56.20
71384;BME280;61466;52.166;5.004;2022-07-03T00:18:56;101891.81;;;18.49;56.13
71384;BME280;61466;52.166;5.004;2022-07-03T00:21:34;101890.00;;;18.45;56.56
71384;BME280;61466;52.166;5.004;2022-07-03T00:24:07;101896.28;;;18.40;56.69
71384;BME280;61466;52.166;5.004;2022-07-03T00:26:34;101902.59;;;18.35;56.71
71384;BME280;61466;52.166;5.004;2022-07-03T00:29:02;101903.47;;;18.31;57.19
71384;BME280;61466;52.166;5.004;2022-07-03T00:31:29;101891.34;;;18.23;57.29
71384;BME280;61466;52.166;5.004;2022-07-03T00:33:57;101887.63;;;18.19;57.35
71384;BME280;61466;52.166;5.004;2022-07-03T00:36:30;101894.66;;;18.20;57.26
71384;BME280;61466;52.166;5.004;2022-07-03T00:38:58;101888.72;;;18.18;57.27
71384;BME280;61466;52.166;5.004;2022-07-03T00:41:31;101892.00;;;18.15;57.60
71384;BME280;61466;52.166;5.004;2022-07-03T00:43:57;101887.97;;;18.12;57.23
71384;BME280;61466;52.166;5.004;2022-07-03T00:46:24;101880.13;;;18.11;57.76
71384;BME280;61466;52.166;5.004;2022-07-03T00:48:51;101883.72;;;18.06;57.80
71384;BME280;61466;52.166;5.004;2022-07-03T00:51:27;101887.22;;;18.07;58.06
71384;BME280;61466;52.166;5.004;2022-07-03T00:53:55;101882.41;;;18.04;58.01
71384;BME280;61466;52.166;5.004;2022-07-03T00:56:27;101889.66;;;18.08;58.22
71384;BME280;61466;52.166;5.004;2022-07-03T00:58:55;101883.16;;;18.09;58.05
71384;BME280;61466;52.166;5.004;2022-07-03T01:01:24;101879.09;;;18.07;58.35
71384;BME280;61466;52.166;5.004;2022-07-03T01:04:08;101880.13;;;18.11;58.64
71384;BME280;61466;52.166;5.004;2022-07-03T01:06:52;101883.94;;;18.10;58.67
71384;BME280;61466;52.166;5.004;2022-07-03T01:09:26;101883.34;;;18.13;58.85
71384;BME280;61466;52.166;5.004;2022-07-03T01:12:03;101877.94;;;18.13;59.12
71384;BME280;61466;52.166;5.004;2022-07-03T01:14:49;101889.25;;;18.20;59.49
71384;BME280;61466;52.166;5.004;2022-07-03T01:17:34;101889.16;;;18.25;59.01
71384;BME280;61466;52.166;5.004;2022-07-03T01:20:04;101880.97;;;18.30;58.53
71384;BME280;61466;52.166;5.004;2022-07-03T01:22:42;101876.88;;;18.33;58.36
71384;BME280;61466;52.166;5.004;2022-07-03T01:25:16;101875.78;;;18.34;58.70
71384;BME280;61466;52.166;5.004;2022-07-03T01:30:36;101872.13;;;18.25;58.65
71384;BME280;61466;52.166;5.004;2022-07-03T01:33:11;101856.50;;;18.16;59.10
71384;BME280;61466;52.166;5.004;2022-07-03T01:35:42;101863.31;;;18.14;59.13
71384;BME280;61466;52.166;5.004;2022-07-03T01:38:13;101866.66;;;18.06;59.08
71384;BME280;61466;52.166;5.004;2022-07-03T01:40:41;101871.28;;;18.05;58.85
71384;BME280;61466;52.166;5.004;2022-07-03T01:43:12;101863.44;;;18.04;59.19
71384;BME280;61466;52.166;5.004;2022-07-03T01:45:46;101867.03;;;17.99;59.69
71384;BME280;61466;52.166;5.004;2022-07-03T01:48:12;101859.25;;;17.92;59.45
71384;BME280;61466;52.166;5.004;2022-07-03T01:50:40;101866.84;;;17.90;59.52
71384;BME280;61466;52.166;5.004;2022-07-03T01:53:09;101863.91;;;17.87;59.34
71384;BME280;61466;52.166;5.004;2022-07-03T01:55:39;101860.41;;;17.86;59.29
71384;BME280;61466;52.166;5.004;2022-07-03T01:58:05;101865.31;;;17.84;59.55
71384;BME280;61466;52.166;5.004;2022-07-03T02:00:45;101849.38;;;17.77;59.91
71384;BME280;61466;52.166;5.004;2022-07-03T02:03:21;101860.44;;;17.81;59.78
71384;BME280;61466;52.166;5.004;2022-07-03T02:05:59;101861.50;;;17.85;59.51
71384;BME280;61466;52.166;5.004;2022-07-03T02:08:45;101853.59;;;17.89;59.94
71384;BME280;61466;52.166;5.004;2022-07-03T02:11:18;101868.78;;;17.90;59.39
71384;BME280;61466;52.166;5.004;2022-07-03T02:13:50;101861.97;;;17.92;59.66
71384;BME280;61466;52.166;5.004;2022-07-03T02:16:23;101862.16;;;17.96;59.88
71384;BME280;61466;52.166;5.004;2022-07-03T02:18:56;101835.19;;;17.91;59.21
71384;BME280;61466;52.166;5.004;2022-07-03T02:21:26;101843.63;;;18.08;59.13
71384;BME280;61466;52.166;5.004;2022-07-03T02:26:38;101855.13;;;18.19;59.07
71384;BME280;61466;52.166;5.004;2022-07-03T02:29:07;101850.72;;;18.23;58.74
71384;BME280;61466;52.166;5.004;2022-07-03T02:31:42;101855.56;;;18.26;58.97
71384;BME280;61466;52.166;5.004;2022-07-03T02:34:08;101847.66;;;18.30;58.72
71384;BME280;61466;52.166;5.004;2022-07-03T02:36:40;101853.31;;;18.33;59.05
71384;BME280;61466;52.166;5.004;2022-07-03T02:39:14;101841.44;;;18.29;58.59
71384;BME280;61466;52.166;5.004;2022-07-03T02:41:46;101851.41;;;18.34;58.74
71384;BME280;61466;52.166;5.004;2022-07-03T02:44:42;101850.53;;;18.38;58.81
71384;BME280;61466;52.166;5.004;2022-07-03T02:50:02;101848.03;;;18.42;59.02
71384;BME280;61466;52.166;5.004;2022-07-03T02:55:02;101833.19;;;18.39;58.75
71384;BME280;61466;52.166;5.004;2022-07-03T02:57:41;101829.97;;;18.37;58.37
71384;BME280;61466;52.166;5.004;2022-07-03T03:00:10;101828.94;;;18.33;58.44
71384;BME280;61466;52.166;5.004;2022-07-03T03:02:52;101841.09;;;18.36;58.67
71384;BME280;61466;52.166;5.004;2022-07-03T03:08:16;101833.97;;;18.21;59.33
71384;BME280;61466;52.166;5.004;2022-07-03T03:10:45;101845.84;;;18.25;59.21
71384;BME280;61466;52.166;5.004;2022-07-03T03:13:13;101838.31;;;18.22;59.17
71384;BME280;61466;52.166;5.004;2022-07-03T03:15:44;101839.91;;;18.23;58.92
71384;BME280;61466;52.166;5.004;2022-07-03T03:18:21;101846.94;;;18.24;58.94
71384;BME280;61466;52.166;5.004;2022-07-03T03:20:48;101848.53;;;18.25;59.11
71384;BME280;61466;52.166;5.004;2022-07-03T03:23:29;101843.94;;;18.26;59.04
71384;BME280;61466;52.166;5.004;2022-07-03T03:25:56;101842.25;;;18.30;59.07
71384;BME280;61466;52.166;5.004;2022-07-03T03:28:23;101843.34;;;18.29;59.08
71384;BME280;61466;52.166;5.004;2022-07-03T03:30:49;101849.22;;;18.36;59.21
71384;BME280;61466;52.166;5.004;2022-07-03T03:33:16;101840.78;;;18.37;58.83
71384;BME280;61466;52.166;5.004;2022-07-03T03:35:41;101838.59;;;18.39;58.91
71384;BME280;61466;52.166;5.004;2022-07-03T03:38:07;101843.19;;;18.39;59.14
71384;BME280;61466;52.166;5.004;2022-07-03T03:40:33;101841.81;;;18.41;58.88
71384;BME280;61466;52.166;5.004;2022-07-03T03:42:59;101838.00;;;18.42;58.94
71384;BME280;61466;52.166;5.004;2022-07-03T03:45:24;101833.63;;;18.47;58.69
71384;BME280;61466;52.166;5.004;2022-07-03T03:47:50;101844.44;;;18.47;58.95
71384;BME280;61466;52.166;5.004;2022-07-03T03:50:15;101847.16;;;18.47;59.02
71384;BME280;61466;52.166;5.004;2022-07-03T03:52:41;101841.50;;;18.43;58.89
71384;BME280;61466;52.166;5.004;2022-07-03T03:55:07;101854.25;;;18.42;58.82
71384;BME280;61466;52.166;5.004;2022-07-03T03:57:34;101841.31;;;18.39;59.14
71384;BME280;61466;52.166;5.004;2022-07-03T04:00:00;101853.09;;;18.49;59.31
71384;BME280;61466;52.166;5.004;2022-07-03T04:02:25;101847.06;;;18.52;59.30
71384;BME280;61466;52.166;5.004;2022-07-03T04:04:50;101851.31;;;18.58;59.31
71384;BME280;61466;52.166;5.004;2022-07-03T04:07:16;101847.22;;;18.60;59.05
71384;BME280;61466;52.166;5.004;2022-07-03T04:09:41;101847.44;;;18.64;59.39
71384;BME280;61466;52.166;5.004;2022-07-03T04:12:07;101846.88;;;18.67;59.25
71384;BME280;61466;52.166;5.004;2022-07-03T04:14:32;101844.16;;;18.67;59.02
71384;BME280;61466;52.166;5.004;2022-07-03T04:16:57;101853.88;;;18.68;59.29
71384;BME280;61466;52.166;5.004;2022-07-03T04:19:23;101832.19;;;18.68;59.25
71384;BME280;61466;52.166;5.004;2022-07-03T04:21:49;101844.16;;;18.67;58.98
71384;BME280;61466;52.166;5.004;2022-07-03T04:24:16;101849.56;;;18.67;59.43
71384;BME280;61466;52.166;5.004;2022-07-03T04:26:42;101854.41;;;18.70;59.25
71384;BME280;61466;52.166;5.004;2022-07-03T04:29:07;101857.34;;;18.74;59.26
71384;BME280;61466;52.166;5.004;2022-07-03T04:31:32;101841.59;;;18.76;59.36
71384;BME280;61466;52.166;5.004;2022-07-03T04:33:58;101851.25;;;18.82;59.84
71384;BME280;61466;52.166;5.004;2022-07-03T04:36:23;101838.72;;;18.86;59.25
71384;BME280;61466;52.166;5.004;2022-07-03T04:38:49;101848.38;;;18.92;59.46
71384;BME280;61466;52.166;5.004;2022-07-03T04:41:14;101847.19;;;18.98;59.30
71384;BME280;61466;52.166;5.004;2022-07-03T04:43:39;101850.13;;;19.02;59.36
71384;BME280;61466;52.166;5.004;2022-07-03T04:46:05;101850.03;;;19.07;59.38
71384;BME280;61466;52.166;5.004;2022-07-03T04:48:30;101853.66;;;19.16;58.99
71384;BME280;61466;52.166;5.004;2022-07-03T04:50:56;101852.41;;;19.28;58.99
71384;BME280;61466;52.166;5.004;2022-07-03T04:53:22;101859.03;;;19.35;58.88
71384;BME280;61466;52.166;5.004;2022-07-03T04:55:47;101861.97;;;19.39;58.64
71384;BME280;61466;52.166;5.004;2022-07-03T04:58:12;101853.81;;;19.39;58.84
71384;BME280;61466;52.166;5.004;2022-07-03T05:00:38;101862.06;;;19.48;58.80
71384;BME280;61466;52.166;5.004;2022-07-03T05:03:06;101859.66;;;19.46;58.98
71384;BME280;61466;52.166;5.004;2022-07-03T05:05:31;101868.28;;;19.48;58.79
71384;BME280;61466;52.166;5.004;2022-07-03T05:07:56;101874.16;;;19.55;58.98
71384;BME280;61466;52.166;5.004;2022-07-03T05:10:22;101874.75;;;19.66;58.66
71384;BME280;61466;52.166;5.004;2022-07-03T05:12:47;101875.28;;;19.82;58.48
71384;BME280;61466;52.166;5.004;2022-07-03T05:15:12;101867.75;;;19.93;58.42
71384;BME280;61466;52.166;5.004;2022-07-03T05:17:38;101874.06;;;20.02;58.12
71384;BME280;61466;52.166;5.004;2022-07-03T05:20:04;101870.44;;;20.07;57.98
71384;BME280;61466;52.166;5.004;2022-07-03T05:22:48;101878.28;;;20.22;58.08
71384;BME280;61466;52.166;5.004;2022-07-03T05:25:13;101879.25;;;20.40;57.59
71384;BME280;61466;52.166;5.004;2022-07-03T05:27:38;101875.13;;;20.79;57.36
71384;BME280;61466;52.166;5.004;2022-07-03T05:30:05;101875.19;;;21.10;56.75
71384;BME280;61466;52.166;5.004;2022-07-03T05:32:30;101870.03;;;21.40;56.39
71384;BME280;61466;52.166;5.004;2022-07-03T05:34:55;101874.06;;;21.74;56.13
71384;BME280;61466;52.166;5.004;2022-07-03T05:37:21;101876.63;;;21.79;55.64
71384;BME280;61466;52.166;5.004;2022-07-03T05:39:46;101873.63;;;21.98;55.56
71384;BME280;61466;52.166;5.004;2022-07-03T05:42:12;101874.84;;;22.23;55.22
71384;BME280;61466;52.166;5.004;2022-07-03T05:44:38;101870.47;;;22.22;54.42
71384;BME280;61466;52.166;5.004;2022-07-03T05:47:03;101892.13;;;22.18;54.57
71384;BME280;61466;52.166;5.004;2022-07-03T05:49:29;101878.59;;;21.96;55.06
71384;BME280;61466;52.166;5.004;2022-07-03T05:51:54;101874.25;;;21.86;55.68
71384;BME280;61466;52.166;5.004;2022-07-03T05:54:19;101882.00;;;22.10;55.04
71384;BME280;61466;52.166;5.004;2022-07-03T05:56:45;101871.16;;;22.45;54.33
71384;BME280;61466;52.166;5.004;2022-07-03T05:59:10;101874.53;;;22.85;53.50
71384;BME280;61466;52.166;5.004;2022-07-03T06:01:36;101872.94;;;23.02;53.14
71384;BME280;61466;52.166;5.004;2022-07-03T06:04:01;101872.34;;;23.35;52.93
71384;BME280;61466;52.166;5.004;2022-07-03T06:06:27;101870.94;;;23.67;52.16
71384;BME280;61466;52.166;5.004;2022-07-03T06:08:52;101866.59;;;23.66;51.53
71384;BME280;61466;52.166;5.004;2022-07-03T06:11:17;101868.09;;;23.55;52.12
71384;BME280;61466;52.166;5.004;2022-07-03T06:13:48;101879.19;;;23.58;51.89
71384;BME280;61466;52.166;5.004;2022-07-03T06:16:14;101877.91;;;23.94;51.41
71384;BME280;61466;52.166;5.004;2022-07-03T06:18:39;101884.16;;;24.24;50.62
71384;BME280;61466;52.166;5.004;2022-07-03T06:21:04;101877.75;;;24.62;50.36
71384;BME280;61466;52.166;5.004;2022-07-03T06:23:30;101875.06;;;25.08;49.58
71384;BME280;61466;52.166;5.004;2022-07-03T06:25:55;101874.69;;;25.30;48.54
71384;BME280;61466;52.166;5.004;2022-07-03T06:28:20;101883.16;;;25.50;48.21
71384;BME280;61466;52.166;5.004;2022-07-03T06:30:46;101878.28;;;25.92;47.73
71384;BME280;61466;52.166;5.004;2022-07-03T06:33:11;101893.34;;;26.39;46.88
71384;BME280;61466;52.166;5.004;2022-07-03T06:35:36;101880.28;;;26.61;45.57
71384;BME280;61466;52.166;5.004;2022-07-03T06:38:02;101885.22;;;26.83;45.04
71384;BME280;61466;52.166;5.004;2022-07-03T06:40:28;101887.16;;;27.11;44.61
71384;BME280;61466;52.166;5.004;2022-07-03T06:42:54;101886.09;;;27.31;44.03
71384;BME280;61466;52.166;5.004;2022-07-03T06:45:19;101874.16;;;27.55;43.61
71384;BME280;61466;52.166;5.004;2022-07-03T06:47:44;101886.97;;;27.83;42.53
71384;BME280;61466;52.166;5.004;2022-07-03T06:50:09;101875.78;;;28.27;42.32
71384;BME280;61466;52.166;5.004;2022-07-03T06:52:35;101882.19;;;28.70;40.85
71384;BME280;61466;52.166;5.004;2022-07-03T06:55:00;101880.16;;;28.87;40.57
71384;BME280;61466;52.166;5.004;2022-07-03T06:57:26;101873.47;;;28.88;39.95
71384;BME280;61466;52.166;5.004;2022-07-03T06:59:51;101876.47;;;29.02;39.77
71384;BME280;61466;52.166;5.004;2022-07-03T07:02:16;101869.72;;;29.19;39.33
71384;BME280;61466;52.166;5.004;2022-07-03T07:04:42;101853.84;;;29.35;38.64
71384;BME280;61466;52.166;5.004;2022-07-03T07:07:07;101867.41;;;29.71;37.92
71384;BME280;61466;52.166;5.004;2022-07-03T07:09:32;101868.47;;;29.89;37.67
71384;BME280;61466;52.166;5.004;2022-07-03T07:11:58;101858.34;;;29.97;37.36
71384;BME280;61466;52.166;5.004;2022-07-03T07:14:23;101866.41;;;30.43;37.02
71384;BME280;61466;52.166;5.004;2022-07-03T07:16:49;101858.53;;;30.79;36.50
71384;BME280;61466;52.166;5.004;2022-07-03T07:19:14;101866.78;;;31.13;35.12
71384;BME280;61466;52.166;5.004;2022-07-03T07:21:39;101870.91;;;31.40;34.81
71384;BME280;61466;52.166;5.004;2022-07-03T07:24:05;101866.88;;;31.75;33.99
71384;BME280;61466;52.166;5.004;2022-07-03T07:26:31;101879.84;;;31.68;33.57
71384;BME280;61466;52.166;5.004;2022-07-03T07:28:56;101869.22;;;31.73;33.36
71384;BME280;61466;52.166;5.004;2022-07-03T07:31:21;101877.44;;;31.62;33.30
71384;BME280;61466;52.166;5.004;2022-07-03T07:33:46;101873.16;;;31.69;33.79
71384;BME280;61466;52.166;5.004;2022-07-03T07:36:12;101889.06;;;31.86;32.98
71384;BME280;61466;52.166;5.004;2022-07-03T07:38:37;101881.28;;;32.06;32.96
71384;BME280;61466;52.166;5.004;2022-07-03T07:41:02;101887.75;;;32.39;32.64
71384;BME280;61466;52.166;5.004;2022-07-03T07:43:28;101885.84;;;32.54;32.17
71384;BME280;61466;52.166;5.004;2022-07-03T07:45:53;101896.06;;;32.42;31.76
71384;BME280;61466;52.166;5.004;2022-07-03T07:48:18;101891.41;;;32.64;31.77
71384;BME280;61466;52.166;5.004;2022-07-03T07:50:44;101892.38;;;32.13;32.37
71384;BME280;61466;52.166;5.004;2022-07-03T07:53:09;101906.25;;;31.17;33.12
71384;BME280;61466;52.166;5.004;2022-07-03T07:55:34;101892.50;;;30.83;33.45
71384;BME280;61466;52.166;5.004;2022-07-03T07:58:00;101895.84;;;30.99;33.77
71384;BME280;61466;52.166;5.004;2022-07-03T08:00:25;101898.03;;;30.83;33.92
71384;BME280;61466;52.166;5.004;2022-07-03T08:02:50;101906.63;;;30.74;33.63
71384;BME280;61466;52.166;5.004;2022-07-03T08:05:35;101909.41;;;30.44;34.23
71384;BME280;61466;52.166;5.004;2022-07-03T08:08:11;101903.00;;;29.79;34.76
71384;BME280;61466;52.166;5.004;2022-07-03T08:10:47;101905.47;;;29.38;35.35
71384;BME280;61466;52.166;5.004;2022-07-03T08:13:15;101913.56;;;29.28;35.83
71384;BME280;61466;52.166;5.004;2022-07-03T08:15:41;101911.53;;;29.25;36.00
71384;BME280;61466;52.166;5.004;2022-07-03T08:18:07;101910.72;;;29.24;36.08
71384;BME280;61466;52.166;5.004;2022-07-03T08:20:34;101911.28;;;28.91;36.28
71384;BME280;61466;52.166;5.004;2022-07-03T08:22:59;101909.09;;;28.42;36.67
71384;BME280;61466;52.166;5.004;2022-07-03T08:25:25;101913.44;;;27.88;37.37
71384;BME280;61466;52.166;5.004;2022-07-03T08:27:51;101914.66;;;27.58;38.69
71384;BME280;61466;52.166;5.004;2022-07-03T08:30:17;101919.00;;;27.60;38.30
71384;BME280;61466;52.166;5.004;2022-07-03T08:32:47;101910.94;;;27.67;38.61
71384;BME280;61466;52.166;5.004;2022-07-03T08:35:13;101918.78;;;28.00;38.04
71384;BME280;61466;52.166;5.004;2022-07-03T08:37:38;101911.53;;;28.08;38.30
71384;BME280;61466;52.166;5.004;2022-07-03T08:40:06;101916.19;;;27.88;38.58
71384;BME280;61466;52.166;5.004;2022-07-03T08:42:32;101925.38;;;27.32;39.29
71384;BME280;61466;52.166;5.004;2022-07-03T08:45:01;101917.88;;;26.72;40.61
71384;BME280;61466;52.166;5.004;2022-07-03T08:47:27;101894.34;;;26.19;41.28
71384;BME280;61466;52.166;5.004;2022-07-03T08:49:53;101923.78;;;25.60;42.88
71384;BME280;61466;52.166;5.004;2022-07-03T08:52:22;101926.81;;;25.01;44.10
71384;BME280;61466;52.166;5.004;2022-07-03T08:54:47;101922.44;;;24.66;44.82
71384;BME280;61466;52.166;5.004;2022-07-03T08:57:13;101930.59;;;24.54;45.21
71384;BME280;61466;52.166;5.004;2022-07-03T08:59:38;101924.69;;;24.43;45.46
71384;BME280;61466;52.166;5.004;2022-07-03T09:02:04;101926.28;;;24.44;45.53
71384;BME280;61466;52.166;5.004;2022-07-03T09:04:31;101919.78;;;24.58;45.57
71384;BME280;61466;52.166;5.004;2022-07-03T09:06:58;101916.56;;;24.98;44.75
71384;BME280;61466;52.166;5.004;2022-07-03T09:09:24;101913.03;;;25.30;44.39
71384;BME280;61466;52.166;5.004;2022-07-03T09:11:51;101917.31;;;25.19;44.23
71384;BME280;61466;52.166;5.004;2022-07-03T09:14:16;101920.78;;;25.07;44.04
71384;BME280;61466;52.166;5.004;2022-07-03T09:16:42;101911.38;;;25.17;44.28
71384;BME280;61466;52.166;5.004;2022-07-03T09:19:07;101912.03;;;25.47;44.08
71384;BME280;61466;52.166;5.004;2022-07-03T09:21:40;101907.22;;;25.81;43.94
71384;BME280;61466;52.166;5.004;2022-07-03T09:24:07;101906.59;;;26.62;43.18
71384;BME280;61466;52.166;5.004;2022-07-03T09:26:34;101908.00;;;27.44;41.56
71384;BME280;61466;52.166;5.004;2022-07-03T09:28:59;101904.22;;;27.64;41.25
71384;BME280;61466;52.166;5.004;2022-07-03T09:31:27;101902.06;;;27.73;40.49
71384;BME280;61466;52.166;5.004;2022-07-03T09:34:02;101895.59;;;27.66;40.72
71384;BME280;61466;52.166;5.004;2022-07-03T09:36:44;101906.38;;;28.06;40.45
71384;BME280;61466;52.166;5.004;2022-07-03T09:39:21;101911.50;;;28.82;39.59
71384;BME280;61466;52.166;5.004;2022-07-03T09:41:58;101909.06;;;28.77;38.56
71384;BME280;61466;52.166;5.004;2022-07-03T09:44:37;101916.97;;;28.24;38.82
71384;BME280;61466;52.166;5.004;2022-07-03T09:47:19;101904.38;;;27.40;40.26
71384;BME280;61466;52.166;5.004;2022-07-03T09:49:50;101918.06;;;26.80;41.31
71384;BME280;61466;52.166;5.004;2022-07-03T09:57:38;101912.41;;;26.07;42.55
71384;BME280;61466;52.166;5.004;2022-07-03T10:02:33;101919.13;;;25.61;43.54
71384;BME280;61466;52.166;5.004;2022-07-03T10:05:11;101916.22;;;25.32;43.67
71384;BME280;61466;52.166;5.004;2022-07-03T10:07:51;101923.84;;;24.93;44.19
71384;BME280;61466;52.166;5.004;2022-07-03T10:10:19;101935.41;;;24.57;44.98
71384;BME280;61466;52.166;5.004;2022-07-03T10:12:46;101932.53;;;24.24;45.50
71384;BME280;61466;52.166;5.004;2022-07-03T10:15:13;101931.75;;;23.94;47.00
71384;BME280;61466;52.166;5.004;2022-07-03T10:17:42;101934.44;;;23.55;48.29
71384;BME280;61466;52.166;5.004;2022-07-03T10:20:11;101929.84;;;23.21;49.27
71384;BME280;61466;52.166;5.004;2022-07-03T10:22:40;101934.34;;;22.99;49.81
71384;BME280;61466;52.166;5.004;2022-07-03T10:25:07;101943.22;;;22.87;50.46
71384;BME280;61466;52.166;5.004;2022-07-03T10:27:35;101944.78;;;22.71;51.03
71384;BME280;61466;52.166;5.004;2022-07-03T10:30:01;101948.78;;;22.56;52.39
71384;BME280;61466;52.166;5.004;2022-07-03T10:32:27;101958.19;;;22.24;53.54
71384;BME280;61466;52.166;5.004;2022-07-03T10:34:53;101957.75;;;21.91;54.77
71384;BME280;61466;52.166;5.004;2022-07-03T10:37:20;101960.47;;;21.59;55.17
71384;BME280;61466;52.166;5.004;2022-07-03T10:40:09;101974.81;;;21.28;57.63
71384;BME280;61466;52.166;5.004;2022-07-03T10:43:02;101984.47;;;21.12;58.08
71384;BME280;61466;52.166;5.004;2022-07-03T10:46:16;101979.78;;;21.04;58.11
71384;BME280;61466;52.166;5.004;2022-07-03T10:51:17;101968.63;;;21.14;57.54
71384;BME280;61466;52.166;5.004;2022-07-03T10:53:42;101980.31;;;21.37;57.67
71384;BME280;61466;52.166;5.004;2022-07-03T10:56:08;101975.09;;;21.72;57.39
71384;BME280;61466;52.166;5.004;2022-07-03T10:58:57;101980.75;;;22.90;59.36
71384;BME280;61466;52.166;5.004;2022-07-03T11:01:40;101976.44;;;24.27;52.38
71384;BME280;61466;52.166;5.004;2022-07-03T11:04:05;101975.13;;;25.39;52.44
71384;BME280;61466;52.166;5.004;2022-07-03T11:09:05;101967.53;;;26.95;49.86
71384;BME280;61466;52.166;5.004;2022-07-03T11:11:40;101963.34;;;28.06;47.10
71384;BME280;61466;52.166;5.004;2022-07-03T11:14:23;101952.28;;;28.96;44.64
71384;BME280;61466;52.166;5.004;2022-07-03T11:16:49;101955.63;;;28.86;43.22
71384;BME280;61466;52.166;5.004;2022-07-03T11:19:15;101949.38;;;28.50;43.15
71384;BME280;61466;52.166;5.004;2022-07-03T11:21:55;101958.72;;;27.94;42.44
71384;BME280;61466;52.166;5.004;2022-07-03T11:24:35;101953.69;;;27.20;44.49
71384;BME280;61466;52.166;5.004;2022-07-03T11:27:21;101959.41;;;26.59;43.81
71384;BME280;61466;52.166;5.004;2022-07-03T11:29:56;101960.38;;;26.01;45.16
71384;BME280;61466;52.166;5.004;2022-07-03T11:32:44;101949.63;;;25.26;46.46
71384;BME280;61466;52.166;5.004;2022-07-03T11:35:42;101936.06;;;24.54;48.85
71384;BME280;61466;52.166;5.004;2022-07-03T11:38:09;101943.09;;;24.04;49.57
71384;BME280;61466;52.166;5.004;2022-07-03T11:40:36;101958.97;;;23.73;49.98
71384;BME280;61466;52.166;5.004;2022-07-03T11:43:01;101951.84;;;23.24;51.76
71384;BME280;61466;52.166;5.004;2022-07-03T11:45:30;101961.34;;;22.92;53.48
71384;BME280;61466;52.166;5.004;2022-07-03T11:47:56;101968.06;;;22.68;53.45
71384;BME280;61466;52.166;5.004;2022-07-03T11:50:35;101959.53;;;22.35;55.39
71384;BME280;61466;52.166;5.004;2022-07-03T11:53:18;101973.97;;;22.04;54.97
71384;BME280;61466;52.166;5.004;2022-07-03T11:55:51;101974.53;;;21.84;55.84
71384;BME280;61466;52.166;5.004;2022-07-03T11:58:17;101978.16;;;21.71;55.19
71384;BME280;61466;52.166;5.004;2022-07-03T12:00:43;101979.94;;;21.75;55.95
71384;BME280;61466;52.166;5.004;2022-07-03T12:03:14;101978.56;;;21.86;55.75
71384;BME280;61466;52.166;5.004;2022-07-03T12:05:53;101983.41;;;21.98;56.04
71384;BME280;61466;52.166;5.004;2022-07-03T12:08:36;101989.25;;;22.14;56.28
71384;BME280;61466;52.166;5.004;2022-07-03T12:11:09;101972.44;;;22.21;54.92
71384;BME280;61466;52.166;5.004;2022-07-03T12:13:35;101988.38;;;22.36;54.68
71384;BME280;61466;52.166;5.004;2022-07-03T12:16:09;101989.84;;;22.42;54.08
71384;BME280;61466;52.166;5.004;2022-07-03T12:18:54;101979.25;;;22.49;54.52
71384;BME280;61466;52.166;5.004;2022-07-03T12:21:21;101981.19;;;22.58;53.29
71384;BME280;61466;52.166;5.004;2022-07-03T12:23:55;101982.19;;;22.70;53.06
71384;BME280;61466;52.166;5.004;2022-07-03T12:28:54;101967.59;;;22.75;52.92
71384;BME280;61466;52.166;5.004;2022-07-03T12:31:20;101977.88;;;22.96;53.05
71384;BME280;61466;52.166;5.004;2022-07-03T12:33:46;101975.13;;;23.30;52.16
71384;BME280;61466;52.166;5.004;2022-07-03T12:36:12;101969.91;;;23.73;51.40
71384;BME280;61466;52.166;5.004;2022-07-03T12:38:38;101968.00;;;24.11;50.58
71384;BME280;61466;52.166;5.004;2022-07-03T12:41:09;101966.09;;;24.33;50.27
71384;BME280;61466;52.166;5.004;2022-07-03T12:43:42;101958.28;;;24.52;50.17
71384;BME280;61466;52.166;5.004;2022-07-03T12:46:16;101959.28;;;24.69;48.48
71384;BME280;61466;52.166;5.004;2022-07-03T12:51:11;101959.41;;;24.93;48.66
71384;BME280;61466;52.166;5.004;2022-07-03T12:53:37;101974.53;;;25.12;48.16
71384;BME280;61466;52.166;5.004;2022-07-03T12:56:07;101970.91;;;25.41;47.01
71384;BME280;61466;52.166;5.004;2022-07-03T12:58:34;101976.50;;;25.45;46.31
71384;BME280;61466;52.166;5.004;2022-07-03T13:01:33;101970.84;;;25.08;45.84
71384;BME280;61466;52.166;5.004;2022-07-03T13:04:01;101977.69;;;24.60;46.84
71384;BME280;61466;52.166;5.004;2022-07-03T13:06:27;101969.94;;;24.02;47.94
71384;BME280;61466;52.166;5.004;2022-07-03T13:08:57;101980.09;;;24.02;48.19
71384;BME280;61466;52.166;5.004;2022-07-03T13:11:32;101977.50;;;24.35;48.22
71384;BME280;61466;52.166;5.004;2022-07-03T13:16:50;101980.53;;;24.42;44.97
71384;BME280;61466;52.166;5.004;2022-07-03T13:19:20;101986.00;;;24.42;45.78
71384;BME280;61466;52.166;5.004;2022-07-03T13:21:46;101995.25;;;24.29;46.39
71384;BME280;61466;52.166;5.004;2022-07-03T13:24:13;101981.16;;;24.18;46.47
71384;BME280;61466;52.166;5.004;2022-07-03T13:26:39;101997.75;;;24.04;46.84
71384;BME280;61466;52.166;5.004;2022-07-03T13:29:05;101982.50;;;24.03;46.96
71384;BME280;61466;52.166;5.004;2022-07-03T13:31:31;101976.63;;;24.43;46.68
71384;BME280;61466;52.166;5.004;2022-07-03T13:33:57;101982.81;;;24.82;46.08
71384;BME280;61466;52.166;5.004;2022-07-03T13:36:24;101980.75;;;25.00;46.09